createdAt,value
2017-05-29T00:00:48.845Z,68.70
2017-05-29T00:03:17.096Z,69.00
2017-05-29T00:05:45.336Z,68.60
2017-05-29T00:08:13.594Z,68.70
2017-05-29T00:10:41.832Z,69.20
2017-05-29T00:13:10.081Z,69.60
2017-05-29T00:15:38.329Z,68.70
2017-05-29T00:18:06.556Z,68.30
2017-05-29T00:20:34.021Z,68.20
2017-05-29T00:23:02.272Z,68.80
2017-05-29T00:25:30.533Z,68.70
2017-05-29T00:27:58.779Z,69.20
2017-05-29T00:30:27.019Z,69.40
2017-05-29T00:32:55.268Z,70.10
2017-05-29T00:38:14.936Z,67.50
2017-05-29T00:40:43.173Z,67.30
2017-05-29T00:43:11.425Z,67.60
2017-05-29T00:45:39.656Z,68.10
2017-05-29T00:48:07.904Z,69.10
2017-05-29T00:50:36.140Z,69.20
2017-05-29T00:53:04.385Z,69.10
2017-05-29T00:55:32.624Z,68.80
2017-05-29T00:58:00.880Z,68.90
2017-05-29T01:00:29.125Z,68.70
2017-05-29T01:02:57.392Z,69.00
2017-05-29T01:05:25.663Z,69.10
2017-05-29T01:07:53.909Z,69.10
2017-05-29T01:10:22.157Z,69.10
2017-05-29T01:12:50.394Z,69.00
2017-05-29T01:15:18.645Z,67.80
2017-05-29T01:17:46.893Z,67.50
2017-05-29T01:20:15.150Z,67.80
2017-05-29T01:22:43.392Z,68.60
2017-05-29T01:25:11.669Z,68.80
2017-05-29T01:27:39.917Z,69.20
2017-05-29T01:30:08.157Z,68.80
2017-05-29T01:32:36.408Z,68.90
2017-05-29T01:35:04.650Z,69.10
2017-05-29T01:37:32.946Z,69.20
2017-05-29T01:40:01.186Z,68.80
2017-05-29T01:42:29.456Z,68.60
2017-05-29T01:44:59.263Z,68.60
2017-05-29T01:47:27.497Z,68.70
2017-05-29T01:49:55.746Z,68.60
2017-05-29T01:52:23.998Z,68.50
2017-05-29T01:54:52.253Z,68.40
2017-05-29T01:57:20.542Z,67.70
2017-05-29T01:59:48.786Z,67.70
2017-05-29T02:02:17.047Z,68.10
2017-05-29T02:04:45.279Z,68.10
2017-05-29T02:07:13.532Z,68.40
2017-05-29T02:09:41.780Z,68.60
2017-05-29T02:12:10.011Z,68.80
2017-05-29T02:14:38.587Z,68.50
2017-05-29T02:17:06.833Z,68.50
2017-05-29T02:19:35.076Z,68.40
2017-05-29T02:22:03.418Z,68.50
2017-05-29T02:24:31.683Z,68.90
2017-05-29T02:26:59.939Z,69.10
2017-05-29T02:29:28.202Z,69.60
2017-05-29T02:31:56.455Z,69.70
2017-05-29T02:34:24.713Z,69.90
2017-05-29T02:36:52.960Z,69.60
2017-05-29T02:39:21.233Z,69.90
2017-05-29T02:41:49.488Z,70.10
2017-05-29T02:44:17.740Z,68.70
2017-05-29T02:46:45.996Z,68.80
2017-05-29T02:49:14.253Z,68.80
2017-05-29T02:51:42.505Z,69.40
2017-05-29T02:54:10.757Z,69.60
2017-05-29T02:56:39.020Z,69.70
2017-05-29T02:59:07.253Z,69.70
2017-05-29T03:01:35.515Z,69.50
2017-05-29T03:04:03.776Z,68.40
2017-05-29T03:06:32.044Z,68.50
2017-05-29T03:09:00.279Z,68.90
2017-05-29T03:11:28.520Z,69.10
2017-05-29T03:13:56.768Z,69.10
2017-05-29T03:16:25.069Z,69.20
2017-05-29T03:18:53.313Z,69.20
2017-05-29T03:21:21.560Z,69.60
2017-05-29T03:23:49.805Z,69.70
2017-05-29T03:26:18.045Z,69.80
2017-05-29T03:28:46.315Z,70.40
2017-05-29T03:31:14.567Z,69.70
2017-05-29T03:33:42.810Z,69.60
2017-05-29T03:36:11.091Z,69.80
2017-05-29T03:38:39.374Z,70.20
2017-05-29T03:41:07.617Z,70.30
2017-05-29T03:43:35.877Z,70.20
2017-05-29T03:46:04.128Z,68.70
2017-05-29T03:48:32.367Z,67.80
2017-05-29T03:51:00.645Z,67.70
2017-05-29T03:53:28.890Z,68.00
2017-05-29T03:55:57.176Z,68.70
2017-05-29T03:58:25.453Z,69.70
2017-05-29T04:00:53.718Z,68.90
2017-05-29T04:03:21.970Z,69.10
2017-05-29T04:05:50.309Z,69.30
2017-05-29T04:08:18.556Z,69.70
2017-05-29T04:10:46.813Z,69.10
2017-05-29T04:13:15.129Z,69.20
2017-05-29T04:15:43.395Z,68.90
2017-05-29T04:18:11.647Z,69.10
2017-05-29T04:20:39.889Z,70.00
2017-05-29T04:23:08.145Z,70.00
2017-05-29T04:25:36.413Z,69.50
2017-05-29T04:28:04.674Z,69.20
2017-05-29T04:30:32.912Z,68.60
2017-05-29T04:33:01.181Z,67.80
2017-05-29T04:35:29.464Z,67.70
2017-05-29T04:37:57.738Z,67.10
2017-05-29T04:40:25.976Z,67.10
2017-05-29T04:42:54.233Z,67.60
2017-05-29T04:45:22.481Z,67.70
2017-05-29T04:47:50.737Z,67.80
2017-05-29T04:50:18.981Z,68.10
2017-05-29T04:52:47.250Z,68.30
2017-05-29T04:55:15.512Z,69.50
2017-05-29T04:57:43.761Z,68.90
2017-05-29T05:00:12.020Z,69.30
2017-05-29T05:02:40.296Z,69.00
2017-05-29T05:05:09.284Z,69.40
2017-05-29T05:07:37.614Z,69.30
2017-05-29T05:10:05.866Z,69.10
2017-05-29T05:12:34.159Z,69.00
2017-05-29T05:15:02.413Z,68.80
2017-05-29T05:17:30.652Z,69.10
2017-05-29T05:19:58.906Z,69.50
2017-05-29T05:22:27.164Z,69.00
2017-05-29T05:24:55.445Z,68.90
2017-05-29T05:27:23.945Z,67.90
2017-05-29T05:29:52.202Z,67.90
2017-05-29T05:32:21.545Z,67.90
2017-05-29T05:34:49.793Z,68.10
2017-05-29T05:37:18.056Z,67.70
2017-05-29T05:39:46.311Z,68.20
2017-05-29T05:42:14.618Z,67.90
2017-05-29T05:44:42.865Z,68.10
2017-05-29T05:47:11.114Z,68.30
2017-05-29T05:49:39.353Z,68.80
2017-05-29T05:52:07.591Z,68.50
2017-05-29T05:54:35.848Z,66.70
2017-05-29T05:57:04.110Z,67.60
2017-05-29T05:59:32.348Z,66.80
2017-05-29T06:02:00.619Z,68.10
2017-05-29T06:04:28.857Z,67.90
2017-05-29T06:06:57.113Z,68.90
2017-05-29T06:09:25.365Z,68.30
2017-05-29T06:11:53.605Z,68.30
2017-05-29T06:14:21.871Z,68.00
2017-05-29T06:19:44.021Z,67.20
2017-05-29T06:22:12.296Z,68.00
2017-05-29T06:27:34.262Z,67.00
2017-05-29T06:30:02.501Z,66.30
2017-05-29T06:32:30.761Z,65.90
2017-05-29T06:34:59.010Z,64.80
2017-05-29T06:37:27.244Z,66.20
2017-05-29T06:39:55.509Z,63.60
2017-05-29T06:42:23.761Z,62.40
2017-05-29T06:44:52.004Z,63.00
2017-05-29T06:47:20.301Z,63.30
2017-05-29T06:55:36.293Z,62.70
2017-05-29T06:58:04.538Z,62.80
2017-05-29T07:00:32.815Z,61.00
2017-05-29T07:03:01.056Z,62.80
2017-05-29T07:05:29.309Z,60.60
2017-05-29T07:07:57.547Z,60.40
2017-05-29T07:13:19.830Z,59.40
2017-05-29T07:15:48.087Z,59.90
2017-05-29T07:18:16.327Z,60.00
2017-05-29T07:20:45.146Z,58.70
2017-05-29T07:26:07.789Z,59.10
2017-05-29T07:28:53.001Z,57.80
2017-05-29T07:31:21.261Z,58.00
2017-05-29T07:33:49.496Z,57.40
2017-05-29T07:36:17.897Z,56.70
2017-05-29T07:38:46.132Z,57.50
2017-05-29T07:41:14.398Z,57.10
2017-05-29T07:43:42.677Z,56.40
2017-05-29T07:46:10.920Z,57.00
2017-05-29T07:48:39.194Z,57.80
2017-05-29T07:51:07.442Z,57.40
2017-05-29T07:53:35.690Z,57.40
2017-05-29T07:56:03.939Z,57.30
2017-05-29T07:58:32.173Z,58.00
2017-05-29T08:01:00.421Z,58.60
2017-05-29T08:03:28.669Z,59.90
2017-05-29T08:05:56.916Z,58.90
2017-05-29T08:08:25.198Z,59.70
2017-05-29T08:10:53.446Z,57.40
2017-05-29T08:13:21.695Z,58.80
2017-05-29T08:15:49.959Z,58.50
2017-05-29T08:18:18.197Z,56.40
2017-05-29T08:20:46.473Z,56.40
2017-05-29T08:23:14.717Z,56.30
2017-05-29T08:25:42.973Z,55.30
2017-05-29T08:34:00.146Z,53.20
2017-05-29T08:36:28.391Z,53.80
2017-05-29T08:38:56.642Z,54.60
2017-05-29T08:41:24.887Z,53.70
2017-05-29T08:43:53.116Z,53.50
2017-05-29T08:46:21.364Z,53.60
2017-05-29T08:48:49.620Z,54.10
2017-05-29T08:51:17.871Z,53.90
2017-05-29T08:53:46.100Z,54.00
2017-05-29T08:56:14.361Z,53.10
2017-05-29T08:58:42.612Z,53.60
2017-05-29T09:01:10.860Z,53.60
2017-05-29T09:03:39.088Z,51.50
2017-05-29T09:06:07.334Z,52.30
2017-05-29T09:08:35.690Z,51.60
2017-05-29T09:11:03.935Z,51.70
2017-05-29T09:13:32.183Z,52.10
2017-05-29T09:16:00.430Z,49.90
2017-05-29T09:18:28.685Z,50.60
2017-05-29T09:20:56.943Z,49.70
2017-05-29T09:23:25.229Z,49.30
2017-05-29T09:25:53.461Z,49.60
2017-05-29T09:31:15.611Z,48.00
2017-05-29T09:33:43.859Z,47.80
2017-05-29T09:36:12.093Z,48.60
2017-05-29T09:38:40.341Z,48.40
2017-05-29T09:41:08.612Z,49.00
2017-05-29T09:43:36.881Z,47.60
2017-05-29T09:46:05.121Z,47.60
2017-05-29T09:48:33.359Z,47.70
2017-05-29T09:51:01.616Z,47.80
2017-05-29T09:53:29.848Z,47.70
2017-05-29T09:55:58.118Z,48.10
2017-05-29T09:58:26.364Z,47.20
2017-05-29T10:00:54.629Z,44.60
2017-05-29T10:03:22.881Z,45.20
2017-05-29T10:05:51.146Z,46.30
2017-05-29T10:08:19.377Z,44.00
2017-05-29T10:10:47.623Z,45.10
2017-05-29T10:13:15.871Z,43.90
2017-05-29T10:15:44.116Z,45.10
2017-05-29T10:18:12.358Z,45.50
2017-05-29T10:20:40.595Z,44.10
2017-05-29T10:23:08.841Z,44.30
2017-05-29T10:25:37.082Z,43.00
2017-05-29T10:28:05.353Z,43.50
2017-05-29T10:30:33.619Z,43.30
2017-05-29T10:33:01.857Z,42.80
2017-05-29T10:35:30.114Z,43.50
2017-05-29T10:37:58.403Z,41.70
2017-05-29T10:40:26.681Z,42.70
2017-05-29T10:42:54.944Z,43.00
2017-05-29T10:45:23.173Z,42.80
2017-05-29T10:47:51.434Z,42.30
2017-05-29T10:50:19.680Z,41.60
2017-05-29T10:52:47.932Z,41.40
2017-05-29T10:55:16.207Z,41.50
2017-05-29T11:06:25.217Z,42.00
2017-05-29T11:08:53.508Z,42.00
2017-05-29T11:11:21.774Z,41.80
2017-05-29T11:13:50.017Z,39.80
2017-05-29T11:16:18.264Z,40.20
2017-05-29T11:18:46.627Z,40.60
2017-05-29T11:21:14.872Z,41.70
2017-05-29T11:23:43.105Z,39.30
2017-05-29T11:26:11.362Z,36.60
2017-05-29T11:28:39.628Z,36.90
2017-05-29T11:31:07.875Z,36.00
2017-05-29T11:36:30.032Z,35.90
2017-05-29T11:38:58.277Z,35.30
2017-05-29T11:41:26.537Z,34.00
2017-05-29T11:43:54.768Z,34.50
2017-05-29T11:46:23.033Z,35.70
2017-05-29T11:48:51.288Z,35.10
2017-05-29T11:51:19.644Z,36.20
2017-05-29T11:53:47.883Z,36.50
2017-05-29T11:56:16.131Z,36.60
2017-05-29T11:58:44.393Z,36.60
2017-05-29T12:01:12.620Z,37.90
2017-05-29T12:03:40.866Z,38.50
2017-05-29T12:06:09.203Z,36.60
2017-05-29T12:08:37.487Z,38.10
2017-05-29T12:11:05.725Z,37.40
2017-05-29T12:13:34.013Z,38.10
2017-05-29T12:16:02.266Z,37.60
2017-05-29T12:18:30.520Z,35.90
2017-05-29T12:20:58.756Z,38.10
2017-05-29T12:23:27.018Z,37.70
2017-05-29T12:25:55.256Z,36.80
2017-05-29T12:28:23.493Z,37.30
2017-05-29T12:30:51.739Z,36.60
2017-05-29T12:33:19.985Z,36.90
2017-05-29T12:35:48.231Z,37.50
2017-05-29T12:38:16.473Z,37.50
2017-05-29T12:40:45.275Z,36.60
2017-05-29T12:43:13.526Z,37.50
2017-05-29T12:45:41.765Z,36.40
2017-05-29T12:48:10.000Z,36.10
2017-05-29T12:50:38.240Z,35.90
2017-05-29T12:53:06.474Z,36.80
2017-05-29T12:55:34.757Z,37.00
2017-05-29T12:58:02.992Z,36.40
2017-05-29T13:00:31.248Z,36.10
2017-05-29T13:02:59.483Z,34.30
2017-05-29T13:05:27.725Z,34.90
2017-05-29T13:07:55.969Z,35.30
2017-05-29T13:10:24.224Z,35.40
2017-05-29T13:12:52.469Z,34.90
2017-05-29T13:15:20.720Z,35.40
2017-05-29T13:17:48.956Z,36.10
2017-05-29T13:20:17.205Z,36.70
2017-05-29T13:22:45.465Z,38.00
2017-05-29T13:25:13.703Z,38.40
2017-05-29T13:27:41.952Z,38.20
2017-05-29T13:30:10.186Z,38.70
2017-05-29T13:32:38.448Z,39.20
2017-05-29T13:35:07.277Z,40.30
2017-05-29T13:37:35.657Z,40.20
2017-05-29T13:40:04.025Z,37.80
2017-05-29T13:42:32.343Z,38.50
2017-05-29T13:45:00.600Z,36.90
2017-05-29T13:47:28.888Z,37.60
2017-05-29T13:49:57.133Z,39.20
2017-05-29T13:52:25.378Z,40.10
2017-05-29T13:54:53.643Z,40.40
2017-05-29T13:57:21.887Z,40.30
2017-05-29T13:59:50.134Z,40.30
2017-05-29T14:02:18.379Z,39.70
2017-05-29T14:04:46.619Z,40.30
2017-05-29T14:07:14.856Z,41.40
2017-05-29T14:09:43.184Z,42.30
2017-05-29T14:12:11.524Z,40.90
2017-05-29T14:14:39.776Z,42.70
2017-05-29T14:17:08.020Z,43.50
2017-05-29T14:19:36.345Z,44.40
2017-05-29T14:22:04.604Z,43.60
2017-05-29T14:24:32.840Z,44.90
2017-05-29T14:27:01.097Z,45.90
2017-05-29T14:29:29.338Z,46.70
2017-05-29T14:31:57.579Z,45.50
2017-05-29T14:34:25.820Z,45.60
2017-05-29T14:36:54.103Z,45.60
2017-05-29T14:39:22.356Z,46.30
2017-05-29T14:41:50.580Z,45.50
2017-05-29T14:44:18.837Z,46.00
2017-05-29T14:46:47.089Z,46.00
2017-05-29T14:49:15.338Z,47.40
2017-05-29T14:51:43.583Z,47.10
2017-05-29T14:54:11.862Z,47.30
2017-05-29T15:02:27.350Z,48.00
2017-05-29T15:04:55.592Z,48.40
2017-05-29T15:07:23.844Z,48.30
2017-05-29T15:09:52.086Z,48.20
2017-05-29T15:12:20.317Z,48.40
2017-05-29T15:14:48.577Z,48.30
2017-05-29T15:17:16.816Z,47.60
2017-05-29T15:19:45.093Z,47.70
2017-05-29T15:22:13.340Z,48.20
2017-05-29T15:24:41.593Z,49.10
2017-05-29T15:27:09.849Z,48.50
2017-05-29T15:29:38.078Z,49.20
2017-05-29T15:32:06.343Z,51.30
2017-05-29T15:34:34.573Z,50.60
2017-05-29T15:37:02.833Z,50.90
2017-05-29T15:39:31.191Z,52.80
2017-05-29T15:41:59.446Z,52.20
2017-05-29T15:44:27.759Z,52.90
2017-05-29T15:46:56.023Z,52.90
2017-05-29T15:49:24.377Z,52.70
2017-05-29T15:51:52.684Z,51.50
2017-05-29T15:54:21.057Z,50.80
2017-05-29T15:56:49.298Z,51.50
2017-05-29T15:59:17.653Z,52.50
2017-05-29T16:01:45.888Z,52.50
2017-05-29T16:04:14.160Z,52.70
2017-05-29T16:06:42.414Z,51.70
2017-05-29T16:09:10.680Z,52.40
2017-05-29T16:11:38.932Z,52.00
2017-05-29T16:14:07.187Z,50.90
2017-05-29T16:16:35.434Z,51.40
2017-05-29T16:19:03.675Z,51.20
2017-05-29T16:21:31.915Z,52.50
2017-05-29T16:24:00.166Z,52.70
2017-05-29T16:26:28.428Z,51.70
2017-05-29T16:28:56.681Z,51.60
2017-05-29T16:34:18.967Z,51.80
2017-05-29T16:37:00.805Z,51.20
2017-05-29T16:39:29.082Z,52.20
2017-05-29T16:44:51.189Z,50.80
2017-05-29T16:47:19.428Z,49.90
2017-05-29T16:55:34.968Z,50.20
2017-05-29T16:58:03.280Z,50.60
2017-05-29T17:00:31.565Z,51.70
2017-05-29T17:02:59.827Z,51.60
2017-05-29T17:05:28.072Z,53.10
2017-05-29T17:07:56.349Z,54.20
2017-05-29T17:13:18.726Z,57.70
2017-05-29T17:15:46.964Z,58.30
2017-05-29T17:18:15.216Z,56.20
2017-05-29T17:20:43.493Z,56.10
2017-05-29T17:23:11.752Z,56.50
2017-05-29T17:25:40.013Z,58.10
2017-05-29T17:28:08.292Z,57.60
2017-05-29T17:30:36.541Z,61.30
2017-05-29T17:33:04.791Z,58.80
2017-05-29T17:35:33.060Z,62.50
2017-05-29T17:38:01.320Z,64.00
2017-05-29T17:40:29.560Z,64.10
2017-05-29T17:45:51.431Z,65.20
2017-05-29T17:48:19.691Z,66.20
2017-05-29T17:53:42.344Z,67.70
2017-05-29T17:56:10.611Z,68.10
2017-05-29T17:58:38.912Z,68.30
2017-05-29T18:01:07.169Z,65.60
2017-05-29T18:03:35.420Z,65.40
2017-05-29T18:06:03.666Z,65.60
2017-05-29T18:08:31.914Z,65.90
2017-05-29T18:11:00.198Z,67.00
2017-05-29T18:13:28.570Z,67.10
2017-05-29T18:15:56.848Z,66.80
2017-05-29T18:18:25.133Z,67.50
2017-05-29T18:20:53.480Z,67.50
2017-05-29T18:23:21.746Z,68.50
2017-05-29T18:25:50.004Z,67.00
2017-05-29T18:28:18.251Z,68.40
2017-05-29T18:30:46.500Z,69.00
2017-05-29T18:33:14.741Z,68.70
2017-05-29T18:35:43.008Z,68.70
2017-05-29T18:41:07.469Z,69.30
2017-05-29T18:43:52.508Z,70.50
2017-05-29T18:46:20.788Z,70.50
2017-05-29T18:48:49.048Z,69.90
2017-05-29T18:54:34.824Z,71.00
2017-05-29T18:57:03.101Z,71.40
2017-05-29T18:59:38.837Z,73.70
2017-05-29T19:02:07.095Z,74.60
2017-05-29T19:04:54.450Z,74.60
2017-05-29T19:07:22.700Z,75.10
2017-05-29T19:09:50.953Z,73.60
2017-05-29T19:12:19.207Z,73.90
2017-05-29T19:14:47.444Z,74.50
2017-05-29T19:17:15.708Z,74.40
2017-05-29T19:22:38.032Z,74.80
2017-05-29T19:25:06.288Z,75.20
2017-05-29T19:27:34.552Z,75.50
2017-05-29T19:30:02.832Z,74.50
2017-05-29T19:32:31.114Z,74.90
2017-05-29T19:34:59.360Z,75.20
2017-05-29T19:37:27.616Z,75.40
2017-05-29T19:39:57.805Z,75.40
2017-05-29T19:42:26.061Z,75.40
2017-05-29T19:44:54.334Z,75.40
2017-05-29T19:50:16.243Z,76.30
2017-05-29T19:52:45.132Z,76.80
2017-05-29T19:55:13.430Z,77.50
2017-05-29T19:57:41.740Z,78.00
2017-05-29T20:00:09.998Z,77.90
2017-05-29T20:02:38.247Z,78.00
2017-05-29T20:05:07.211Z,77.50
2017-05-29T20:07:35.491Z,78.00
2017-05-29T20:12:57.385Z,76.90
2017-05-29T20:15:25.644Z,76.60
2017-05-29T20:18:13.664Z,76.70
2017-05-29T20:20:41.913Z,77.10
2017-05-29T20:23:10.216Z,77.00
2017-05-29T20:25:38.501Z,77.00
2017-05-29T20:28:06.789Z,77.20
2017-05-29T20:30:35.053Z,77.50
2017-05-29T20:33:03.339Z,77.20
2017-05-29T20:35:31.700Z,77.00
2017-05-29T20:37:59.956Z,77.30
2017-05-29T20:40:28.218Z,76.30
2017-05-29T20:46:07.195Z,75.90
2017-05-29T20:57:17.264Z,76.90
2017-05-29T20:59:45.521Z,76.90
2017-05-29T21:05:08.564Z,77.60
2017-05-29T21:07:36.909Z,78.30
2017-05-29T21:10:05.173Z,78.20
2017-05-29T21:12:33.504Z,78.40
2017-05-29T21:15:01.772Z,78.50
2017-05-29T21:17:30.064Z,77.90
2017-05-29T21:19:58.332Z,76.30
2017-05-29T21:22:26.583Z,74.40
2017-05-29T21:24:54.869Z,73.10
2017-05-29T21:27:23.116Z,76.10
2017-05-29T21:29:51.397Z,74.20
2017-05-29T21:32:27.733Z,72.90
2017-05-29T21:37:50.149Z,80.70
2017-05-29T21:40:18.415Z,80.40
2017-05-29T21:42:46.711Z,80.20
2017-05-29T21:48:08.741Z,80.30
2017-05-29T21:50:36.988Z,80.10
2017-05-29T21:53:05.245Z,78.60
2017-05-29T21:55:33.564Z,76.60
2017-05-29T21:58:01.820Z,76.20
2017-05-29T22:00:30.076Z,74.70
2017-05-29T22:02:58.354Z,74.30
2017-05-29T22:08:26.385Z,73.90
2017-05-29T22:10:54.632Z,74.90
2017-05-29T22:16:16.406Z,76.50
2017-05-29T22:18:44.671Z,76.60
2017-05-29T22:21:12.916Z,77.10
2017-05-29T22:26:35.207Z,77.70
2017-05-29T22:29:03.448Z,77.30
2017-05-29T22:34:25.134Z,77.40
2017-05-29T22:36:53.371Z,78.30
2017-05-29T22:39:21.640Z,80.10
2017-05-29T22:41:49.888Z,78.00
2017-05-29T22:44:18.145Z,76.80
2017-05-29T22:46:46.405Z,77.60
2017-05-29T22:49:14.687Z,74.70
2017-05-29T22:51:42.933Z,73.50
2017-05-29T22:54:11.210Z,71.70
2017-05-29T22:56:39.476Z,67.10
2017-05-29T22:59:07.744Z,66.20
2017-05-29T23:01:35.984Z,71.30
2017-05-29T23:04:04.250Z,70.70
2017-05-29T23:06:32.484Z,65.20
2017-05-29T23:09:00.724Z,65.70
2017-05-29T23:11:28.999Z,66.30
2017-05-29T23:13:57.250Z,67.10
2017-05-29T23:16:25.497Z,67.70
2017-05-29T23:18:53.740Z,67.60
2017-05-29T23:21:22.001Z,67.40
2017-05-29T23:23:50.253Z,67.40
2017-05-29T23:26:18.523Z,54.80
2017-05-29T23:31:41.168Z,64.00
2017-05-29T23:37:09.301Z,70.50
2017-05-29T23:39:37.980Z,67.10
2017-05-29T23:42:06.228Z,66.90
2017-05-29T23:44:34.476Z,74.00
2017-05-29T23:47:02.722Z,74.10
2017-05-29T23:49:30.957Z,77.50
2017-05-29T23:51:59.265Z,76.20
2017-05-29T23:54:27.501Z,79.20
